createdAt,value
2024-01-22T00:01:04.685Z,52.11
2024-01-22T00:03:33.005Z,52.84
2024-01-22T00:06:01.531Z,52.20
2024-01-22T00:08:29.754Z,53.17
2024-01-22T00:10:57.990Z,52.86
2024-01-22T00:13:26.186Z,52.74
2024-01-22T00:15:54.526Z,52.46
2024-01-22T00:18:24.216Z,53.49
2024-01-22T00:20:52.579Z,52.53
2024-01-22T00:23:20.765Z,53.53
2024-01-22T00:25:49.146Z,52.92
2024-01-22T00:28:17.278Z,53.50
2024-01-22T00:30:45.479Z,53.08
2024-01-22T00:33:13.755Z,53.44
2024-01-22T00:35:43.616Z,53.29
2024-01-22T00:38:12.930Z,52.87
2024-01-22T00:40:41.131Z,53.21
2024-01-22T00:43:09.353Z,52.86
2024-01-22T00:45:40.214Z,53.20
2024-01-22T00:48:09.645Z,52.93
2024-01-22T00:50:37.958Z,52.35
2024-01-22T00:53:07.654Z,52.92
2024-01-22T00:55:35.806Z,52.76
2024-01-22T00:58:04.066Z,52.29
2024-01-22T01:00:32.259Z,52.79
2024-01-22T01:03:00.561Z,52.98
2024-01-22T01:05:28.842Z,52.46
2024-01-22T01:07:57.134Z,52.38
2024-01-22T01:10:26.850Z,53.05
2024-01-22T01:12:55.016Z,53.64
2024-01-22T01:15:24.496Z,52.89
2024-01-22T01:17:52.989Z,53.25
2024-01-22T01:20:21.211Z,52.84
2024-01-22T01:22:49.376Z,53.14
2024-01-22T01:25:17.601Z,53.15
2024-01-22T01:27:47.310Z,52.68
2024-01-22T01:30:16.277Z,52.49
2024-01-22T01:32:44.828Z,52.55
2024-01-22T01:35:13.489Z,52.82
2024-01-22T01:37:41.732Z,52.91
2024-01-22T01:40:11.359Z,53.15
2024-01-22T01:42:43.613Z,53.80
2024-01-22T01:45:16.204Z,53.36
2024-01-22T01:47:49.126Z,53.62
2024-01-22T01:50:18.621Z,53.80
2024-01-22T01:52:47.836Z,53.76
2024-01-22T01:55:16.570Z,53.17
2024-01-22T01:57:48.340Z,52.93
2024-01-22T02:00:21.537Z,53.43
2024-01-22T02:02:50.154Z,52.92
2024-01-22T02:05:19.077Z,52.98
2024-01-22T02:07:48.472Z,53.14
2024-01-22T02:10:16.836Z,53.24
2024-01-22T02:12:45.088Z,52.92
2024-01-22T02:15:14.420Z,53.82
2024-01-22T02:17:44.864Z,53.06
2024-01-22T02:20:14.549Z,53.16
2024-01-22T02:22:42.726Z,53.59
2024-01-22T02:25:14.056Z,53.85
2024-01-22T02:27:42.182Z,53.69
2024-01-22T02:30:11.515Z,53.82
2024-01-22T02:32:39.919Z,53.50
2024-01-22T02:35:09.031Z,53.30
2024-01-22T02:37:37.369Z,54.28
2024-01-22T02:40:06.460Z,53.67
2024-01-22T02:42:36.229Z,54.56
2024-01-22T02:45:06.066Z,54.29
2024-01-22T02:47:34.387Z,53.82
2024-01-22T02:50:02.986Z,54.56
2024-01-22T02:52:31.164Z,54.02
2024-01-22T02:54:59.325Z,54.32
2024-01-22T02:57:27.546Z,54.13
2024-01-22T02:59:57.203Z,54.78
2024-01-22T03:02:25.441Z,54.76
2024-01-22T03:04:53.734Z,54.17
2024-01-22T03:07:21.925Z,54.31
2024-01-22T03:09:50.099Z,54.74
2024-01-22T03:12:18.371Z,53.92
2024-01-22T03:14:46.721Z,54.16
2024-01-22T03:17:16.777Z,54.98
2024-01-22T03:19:45.096Z,54.34
2024-01-22T03:22:13.482Z,54.53
2024-01-22T03:24:45.761Z,55.46
2024-01-22T03:27:14.188Z,55.37
2024-01-22T03:29:42.622Z,55.50
2024-01-22T03:32:10.959Z,55.86
2024-01-22T03:34:40.706Z,56.08
2024-01-22T03:37:08.849Z,55.57
2024-01-22T03:39:37.016Z,55.79
2024-01-22T03:42:05.584Z,55.44
2024-01-22T03:44:34.025Z,55.18
2024-01-22T03:47:02.372Z,55.12
2024-01-22T03:49:30.742Z,55.59
2024-01-22T03:52:00.441Z,55.28
2024-01-22T03:54:28.637Z,55.56
2024-01-22T03:56:56.834Z,55.69
2024-01-22T03:59:25.413Z,55.18
2024-01-22T04:01:57.524Z,54.97
2024-01-22T04:04:25.688Z,55.87
2024-01-22T04:06:54.206Z,55.34
2024-01-22T04:09:24.127Z,55.67
2024-01-22T04:11:52.509Z,55.84
2024-01-22T04:14:20.771Z,55.56
2024-01-22T04:16:49.007Z,55.88
2024-01-22T04:19:17.216Z,55.88
2024-01-22T04:21:49.123Z,55.80
2024-01-22T04:24:17.338Z,55.89
2024-01-22T04:26:47.037Z,55.48
2024-01-22T04:29:15.260Z,55.50
2024-01-22T04:31:43.497Z,56.03
2024-01-22T04:34:11.720Z,55.71
2024-01-22T04:36:40.048Z,55.66
2024-01-22T04:39:08.513Z,55.83
2024-01-22T04:41:36.823Z,55.60
2024-01-22T04:44:06.800Z,55.78
2024-01-22T04:46:34.951Z,55.57
2024-01-22T04:49:03.259Z,55.36
2024-01-22T04:51:31.568Z,55.38
2024-01-22T04:53:59.830Z,55.80
2024-01-22T04:56:28.036Z,55.52
2024-01-22T04:58:56.162Z,55.30
2024-01-22T05:01:25.778Z,55.54
2024-01-22T05:03:54.197Z,55.49
2024-01-22T05:06:22.552Z,55.63
2024-01-22T05:08:50.891Z,55.08
2024-01-22T05:11:19.105Z,54.98
2024-01-22T05:13:51.350Z,55.46
2024-01-22T05:16:20.127Z,55.16
2024-01-22T05:18:51.159Z,55.29
2024-01-22T05:21:19.689Z,55.30
2024-01-22T05:23:48.086Z,55.21
2024-01-22T05:26:16.364Z,54.69
2024-01-22T05:28:44.643Z,54.46
2024-01-22T05:31:12.901Z,54.60
2024-01-22T05:33:41.340Z,54.27
2024-01-22T05:36:11.559Z,54.70
2024-01-22T05:38:42.966Z,54.06
2024-01-22T05:41:11.168Z,54.92
2024-01-22T05:43:39.415Z,54.27
2024-01-22T05:46:07.601Z,53.96
2024-01-22T05:48:36.710Z,54.20
2024-01-22T05:51:05.392Z,54.10
2024-01-22T05:53:36.079Z,54.73
2024-01-22T05:56:04.261Z,53.81
2024-01-22T05:58:32.495Z,54.73
2024-01-22T06:01:00.801Z,53.59
2024-01-22T06:03:29.164Z,54.39
2024-01-22T06:05:57.481Z,54.44
2024-01-22T06:08:25.861Z,53.21
2024-01-22T06:10:55.583Z,53.85
2024-01-22T06:13:23.764Z,53.89
2024-01-22T06:15:51.898Z,52.98
2024-01-22T06:18:21.407Z,54.10
2024-01-22T06:20:49.795Z,53.29
2024-01-22T06:23:18.098Z,53.45
2024-01-22T06:25:46.360Z,53.41
2024-01-22T06:28:16.139Z,53.86
2024-01-22T06:30:44.826Z,53.41
2024-01-22T06:33:13.309Z,53.50
2024-01-22T06:35:41.913Z,52.65
2024-01-22T06:38:10.831Z,52.23
2024-01-22T06:40:39.124Z,52.77
2024-01-22T06:43:08.679Z,52.20
2024-01-22T06:45:38.717Z,52.89
2024-01-22T06:48:09.802Z,52.21
2024-01-22T06:50:38.638Z,52.00
2024-01-22T06:53:06.955Z,52.53
2024-01-22T06:55:35.263Z,52.40
2024-01-22T06:58:03.844Z,52.89
2024-01-22T07:00:34.378Z,52.63
2024-01-22T07:03:04.518Z,52.34
2024-01-22T07:05:34.608Z,51.47
2024-01-22T07:08:02.929Z,51.80
2024-01-22T07:10:31.691Z,51.08
2024-01-22T07:12:59.977Z,51.34
2024-01-22T07:15:28.234Z,51.20
2024-01-22T07:17:56.604Z,51.45
2024-01-22T07:20:26.377Z,50.94
2024-01-22T07:22:55.200Z,51.18
2024-01-22T07:25:23.563Z,51.80
2024-01-22T07:27:51.809Z,51.80
2024-01-22T07:30:20.246Z,51.82
2024-01-22T07:32:49.410Z,51.76
2024-01-22T07:35:18.361Z,51.92
2024-01-22T07:37:48.681Z,52.33
2024-01-22T07:40:17.285Z,51.70
2024-01-22T07:42:46.325Z,51.78
2024-01-22T07:45:15.738Z,52.32
2024-01-22T07:47:45.030Z,52.06
2024-01-22T07:50:15.642Z,51.68
2024-01-22T07:52:47.136Z,51.65
2024-01-22T07:55:20.161Z,51.94
2024-01-22T07:57:48.436Z,51.56
2024-01-22T08:00:17.632Z,51.46
2024-01-22T08:02:46.281Z,51.97
2024-01-22T08:05:15.673Z,51.26
2024-01-22T08:07:45.357Z,52.07
2024-01-22T08:10:14.984Z,51.64
2024-01-22T08:12:44.842Z,51.63
2024-01-22T08:15:17.140Z,51.70
2024-01-22T08:17:48.073Z,51.61
2024-01-22T08:20:18.308Z,51.19
2024-01-22T08:22:48.137Z,51.22
2024-01-22T08:25:20.846Z,51.75
2024-01-22T08:27:50.812Z,51.17
2024-01-22T08:30:19.564Z,50.76
2024-01-22T08:32:48.115Z,50.94
2024-01-22T08:35:18.336Z,51.56
2024-01-22T08:37:49.333Z,51.30
2024-01-22T08:40:18.992Z,50.81
2024-01-22T08:42:47.555Z,51.54
2024-01-22T08:45:17.485Z,51.28
2024-01-22T08:47:47.280Z,51.36
2024-01-22T08:50:19.183Z,50.92
2024-01-22T08:52:48.459Z,50.40
2024-01-22T08:55:17.315Z,50.33
2024-01-22T08:57:45.596Z,49.48
2024-01-22T09:00:15.899Z,49.05
2024-01-22T09:02:45.996Z,48.77
2024-01-22T09:05:15.857Z,48.63
2024-01-22T09:07:44.246Z,48.60
2024-01-22T09:10:13.045Z,48.48
2024-01-22T09:12:41.720Z,48.44
2024-01-22T09:15:11.544Z,47.90
2024-01-22T09:17:40.090Z,47.69
2024-01-22T09:20:11.536Z,48.22
2024-01-22T09:22:39.868Z,47.37
2024-01-22T09:25:08.694Z,47.65
2024-01-22T09:27:37.042Z,47.21
2024-01-22T09:30:07.867Z,47.62
2024-01-22T09:32:37.324Z,47.15
2024-01-22T09:35:06.904Z,47.28
2024-01-22T09:37:36.592Z,46.57
2024-01-22T09:40:10.500Z,46.28
2024-01-22T09:42:42.519Z,46.05
2024-01-22T09:45:12.330Z,46.34
2024-01-22T09:47:40.779Z,45.52
2024-01-22T09:50:10.267Z,45.41
2024-01-22T09:52:45.692Z,45.56
2024-01-22T09:55:16.450Z,45.41
2024-01-22T09:57:46.451Z,45.66
2024-01-22T10:00:17.479Z,45.21
2024-01-22T10:02:45.948Z,45.13
2024-01-22T10:05:15.262Z,45.04
2024-01-22T10:07:45.165Z,44.29
2024-01-22T10:10:15.342Z,45.16
2024-01-22T10:13:05.645Z,44.74
2024-01-22T10:15:35.085Z,45.37
2024-01-22T10:18:14.399Z,44.67
2024-01-22T10:20:44.702Z,45.12
2024-01-22T10:23:17.811Z,45.75
2024-01-22T10:25:46.552Z,45.70
2024-01-22T10:28:18.818Z,46.51
2024-01-22T10:30:48.672Z,46.57
2024-01-22T10:33:18.667Z,46.29
2024-01-22T10:35:49.546Z,46.16
2024-01-22T10:38:21.274Z,46.17
2024-01-22T10:40:50.483Z,45.20
2024-01-22T10:43:25.773Z,44.78
2024-01-22T10:45:55.707Z,45.86
2024-01-22T10:48:37.023Z,45.84
2024-01-22T10:51:09.892Z,44.92
2024-01-22T10:53:40.819Z,45.78
2024-01-22T10:56:17.438Z,44.60
2024-01-22T10:58:48.961Z,46.25
2024-01-22T11:01:21.512Z,45.32
2024-01-22T11:03:53.191Z,45.57
2024-01-22T11:06:24.531Z,44.94
2024-01-22T11:08:56.943Z,45.28
2024-01-22T11:11:27.446Z,44.47
2024-01-22T11:13:58.346Z,43.94
2024-01-22T11:16:27.647Z,44.86
2024-01-22T11:18:58.039Z,43.48
2024-01-22T11:21:27.172Z,43.34
2024-01-22T11:24:15.545Z,44.49
2024-01-22T11:26:46.458Z,43.99
2024-01-22T11:29:17.856Z,43.26
2024-01-22T11:31:48.149Z,43.46
2024-01-22T11:34:47.340Z,42.26
2024-01-22T11:37:36.076Z,41.65
2024-01-22T11:40:09.154Z,41.53
2024-01-22T11:42:38.194Z,41.35
2024-01-22T11:45:12.965Z,40.98
2024-01-22T11:47:42.507Z,40.65
2024-01-22T11:50:12.354Z,40.13
2024-01-22T11:52:41.208Z,39.93
2024-01-22T11:55:11.333Z,39.09
2024-01-22T11:57:41.276Z,37.60
2024-01-22T12:00:16.108Z,37.22
2024-01-22T12:02:47.617Z,38.57
2024-01-22T12:05:19.688Z,38.81
2024-01-22T12:07:50.428Z,38.98
2024-01-22T12:10:25.037Z,38.86
2024-01-22T12:12:58.195Z,39.45
2024-01-22T12:15:27.974Z,38.64
2024-01-22T12:17:57.407Z,39.19
2024-01-22T12:20:26.994Z,39.02
2024-01-22T12:22:59.765Z,39.32
2024-01-22T12:25:37.784Z,39.23
2024-01-22T12:28:09.959Z,39.40
2024-01-22T12:30:39.609Z,39.77
2024-01-22T12:33:21.058Z,39.52
2024-01-22T12:35:49.455Z,39.20
2024-01-22T12:38:18.319Z,39.11
2024-01-22T12:40:48.174Z,38.97
2024-01-22T12:43:17.856Z,38.71
2024-01-22T12:45:46.300Z,38.25
2024-01-22T12:48:15.088Z,37.88
2024-01-22T12:50:44.661Z,37.81
2024-01-22T12:53:13.019Z,37.90
2024-01-22T12:55:41.412Z,37.96
2024-01-22T12:58:13.357Z,37.45
2024-01-22T13:00:41.625Z,37.23
2024-01-22T13:03:10.769Z,37.51
2024-01-22T13:05:40.254Z,37.28
2024-01-22T13:08:11.368Z,36.94
2024-01-22T13:10:39.623Z,36.85
2024-01-22T13:13:08.509Z,36.76
2024-01-22T13:15:50.735Z,37.16
2024-01-22T13:18:26.573Z,37.29
2024-01-22T13:20:54.994Z,36.94
2024-01-22T13:23:23.373Z,37.21
2024-01-22T13:25:53.851Z,37.34
2024-01-22T13:28:22.134Z,36.83
2024-01-22T13:30:51.870Z,37.04
2024-01-22T13:33:20.231Z,37.63
2024-01-22T13:35:49.587Z,37.70
2024-01-22T13:38:18.369Z,37.41
2024-01-22T13:40:46.729Z,37.53
2024-01-22T13:43:15.064Z,37.85
2024-01-22T13:45:43.672Z,38.28
2024-01-22T13:48:13.836Z,38.33
2024-01-22T13:50:44.627Z,38.04
2024-01-22T13:53:13.451Z,38.35
2024-01-22T13:55:41.671Z,38.36
2024-01-22T13:58:10.022Z,38.38
2024-01-22T14:00:39.202Z,38.32
2024-01-22T14:03:08.047Z,38.30
2024-01-22T14:05:37.955Z,38.72
2024-01-22T14:08:07.129Z,39.25
2024-01-22T14:10:35.644Z,39.56
2024-01-22T14:13:04.057Z,39.76
2024-01-22T14:15:33.231Z,40.40
2024-01-22T14:18:02.119Z,40.02
2024-01-22T14:20:30.521Z,40.00
2024-01-22T14:23:07.340Z,39.69
2024-01-22T14:25:36.993Z,40.91
2024-01-22T14:28:05.593Z,40.42
2024-01-22T14:30:34.015Z,40.98
2024-01-22T14:33:02.828Z,41.24
2024-01-22T14:35:31.649Z,41.30
2024-01-22T14:38:01.585Z,40.95
2024-01-22T14:40:30.025Z,41.32
2024-01-22T14:42:58.566Z,41.53
2024-01-22T14:45:26.941Z,42.02
2024-01-22T14:47:57.134Z,42.23
2024-01-22T14:50:27.010Z,41.90
2024-01-22T14:52:55.320Z,41.56
2024-01-22T14:55:25.464Z,42.17
2024-01-22T14:57:53.686Z,41.63
2024-01-22T15:00:22.497Z,41.85
2024-01-22T15:02:52.296Z,42.50
2024-01-22T15:05:20.769Z,42.55
2024-01-22T15:07:49.745Z,42.38
2024-01-22T15:10:18.496Z,42.31
2024-01-22T15:12:48.922Z,43.28
2024-01-22T15:15:17.205Z,43.93
2024-01-22T15:17:45.662Z,43.68
2024-01-22T15:20:15.196Z,45.16
2024-01-22T15:22:43.665Z,44.71
2024-01-22T15:25:13.539Z,46.11
2024-01-22T15:27:41.823Z,45.69
2024-01-22T15:30:12.696Z,46.26
2024-01-22T15:32:41.149Z,47.67
2024-01-22T15:35:11.303Z,48.06
2024-01-22T15:37:41.717Z,48.22
2024-01-22T15:40:11.886Z,48.17
2024-01-22T15:42:40.410Z,48.76
2024-01-22T15:45:10.453Z,49.66
2024-01-22T15:47:41.172Z,49.63
2024-01-22T15:50:10.282Z,50.46
2024-01-22T15:52:38.578Z,49.80
2024-01-22T15:55:07.021Z,51.54
2024-01-22T15:57:35.266Z,51.43
2024-01-22T16:00:03.868Z,51.70
2024-01-22T16:02:32.226Z,51.71
2024-01-22T16:05:02.154Z,51.69
2024-01-22T16:07:30.719Z,51.91
2024-01-22T16:09:59.149Z,52.79
2024-01-22T16:12:27.744Z,51.76
2024-01-22T16:14:56.224Z,52.88
2024-01-22T16:17:25.116Z,53.23
2024-01-22T16:19:53.577Z,53.27
2024-01-22T16:22:23.358Z,53.05
2024-01-22T16:24:51.739Z,52.61
2024-01-22T16:27:20.622Z,52.58
2024-01-22T16:29:51.927Z,53.00
2024-01-22T16:32:20.852Z,53.61
2024-01-22T16:34:49.457Z,53.62
2024-01-22T16:37:19.551Z,52.76
2024-01-22T16:39:51.014Z,54.10
2024-01-22T16:42:19.225Z,53.88
2024-01-22T16:44:47.577Z,54.32
2024-01-22T16:47:16.126Z,54.27
2024-01-22T16:49:45.124Z,55.74
2024-01-22T16:52:13.566Z,55.96
2024-01-22T16:54:41.736Z,56.09
2024-01-22T16:57:11.444Z,55.90
2024-01-22T16:59:39.645Z,56.82
2024-01-22T17:02:08.210Z,56.41
2024-01-22T17:04:36.539Z,56.29
2024-01-22T17:07:06.327Z,57.07
2024-01-22T17:09:34.730Z,57.82
2024-01-22T17:12:04.312Z,58.20
2024-01-22T17:14:34.516Z,58.09
2024-01-22T17:17:05.543Z,58.50
2024-01-22T17:19:34.152Z,59.06
2024-01-22T17:22:02.446Z,59.34
2024-01-22T17:24:30.807Z,59.11
2024-01-22T17:26:59.190Z,58.65
2024-01-22T17:29:27.578Z,59.04
2024-01-22T17:31:58.010Z,58.22
2024-01-22T17:34:26.661Z,58.44
2024-01-22T17:36:55.008Z,58.76
2024-01-22T17:39:23.732Z,58.88
2024-01-22T17:41:52.508Z,59.30
2024-01-22T17:44:20.851Z,59.57
2024-01-22T17:46:49.169Z,59.08
2024-01-22T17:49:18.907Z,59.17
2024-01-22T17:51:47.368Z,59.32
2024-01-22T17:54:15.689Z,59.24
2024-01-22T17:56:44.044Z,59.82
2024-01-22T17:59:14.284Z,59.58
2024-01-22T18:01:42.526Z,59.60
2024-01-22T18:04:10.869Z,59.63
2024-01-22T18:06:40.820Z,59.88
2024-01-22T18:09:09.168Z,60.24
2024-01-22T18:11:37.504Z,60.43
2024-01-22T18:14:06.219Z,60.82
2024-01-22T18:16:34.691Z,61.09
2024-01-22T18:19:03.219Z,60.56
2024-01-22T18:21:31.509Z,61.59
2024-01-22T18:24:06.580Z,62.47
2024-01-22T18:26:35.264Z,63.31
2024-01-22T18:29:03.656Z,62.85
2024-01-22T18:31:31.884Z,62.76
2024-01-22T18:34:00.431Z,62.26
2024-01-22T18:36:28.781Z,62.98
2024-01-22T18:38:57.084Z,63.04
2024-01-22T18:41:28.909Z,63.26
2024-01-22T18:43:57.918Z,62.90
2024-01-22T18:46:26.444Z,63.89
2024-01-22T18:48:54.901Z,63.80
2024-01-22T18:51:23.425Z,63.61
2024-01-22T18:53:51.876Z,63.70
2024-01-22T18:56:20.048Z,64.14
2024-01-22T18:58:49.776Z,63.95
2024-01-22T19:01:18.878Z,63.61
2024-01-22T19:03:47.530Z,63.63
2024-01-22T19:06:15.935Z,63.45
2024-01-22T19:08:44.849Z,64.38
2024-01-22T19:11:13.089Z,65.51
2024-01-22T19:13:42.177Z,65.14
2024-01-22T19:16:13.798Z,64.82
2024-01-22T19:18:43.064Z,64.49
2024-01-22T19:21:16.933Z,64.77
2024-01-22T19:23:45.841Z,65.37
2024-01-22T19:26:14.571Z,66.38
2024-01-22T19:28:42.885Z,67.36
2024-01-22T19:31:12.625Z,67.49
2024-01-22T19:33:41.655Z,67.60
2024-01-22T19:36:10.326Z,68.14
2024-01-22T19:38:39.116Z,68.52
2024-01-22T19:41:07.749Z,69.28
2024-01-22T19:43:36.028Z,68.12
2024-01-22T19:46:04.403Z,67.15
2024-01-22T19:48:36.423Z,67.77
2024-01-22T19:51:05.048Z,68.04
2024-01-22T19:53:34.407Z,69.25
2024-01-22T19:56:02.709Z,68.36
2024-01-22T19:58:31.066Z,68.83
2024-01-22T20:00:59.409Z,68.43
2024-01-22T20:03:27.741Z,68.86
2024-01-22T20:05:57.610Z,68.49
2024-01-22T20:08:25.976Z,68.34
2024-01-22T20:10:54.302Z,68.16
2024-01-22T20:13:22.677Z,69.05
2024-01-22T20:15:51.004Z,68.94
2024-01-22T20:18:19.440Z,68.99
2024-01-22T20:20:47.788Z,68.90
2024-01-22T20:23:17.654Z,68.21
2024-01-22T20:25:45.934Z,68.43
2024-01-22T20:28:15.321Z,68.15
2024-01-22T20:30:43.585Z,67.85
2024-01-22T20:33:11.886Z,68.08
2024-01-22T20:35:41.841Z,68.83
2024-01-22T20:38:11.090Z,69.29
2024-01-22T20:40:42.898Z,68.03
2024-01-22T20:43:11.635Z,68.84
2024-01-22T20:45:39.985Z,67.64
2024-01-22T20:48:09.333Z,68.67
2024-01-22T20:50:37.641Z,67.80
2024-01-22T20:53:06.043Z,68.02
2024-01-22T20:55:34.473Z,67.13
2024-01-22T20:58:04.282Z,67.22
2024-01-22T21:00:32.621Z,67.17
2024-01-22T21:03:02.351Z,67.61
2024-01-22T21:05:30.865Z,67.62
2024-01-22T21:07:59.313Z,67.84
2024-01-22T21:10:27.738Z,67.63
2024-01-22T21:12:56.693Z,67.66
2024-01-22T21:15:26.833Z,67.77
2024-01-22T21:17:55.393Z,67.85
2024-01-22T21:20:24.693Z,67.78
2024-01-22T21:22:53.642Z,68.04
2024-01-22T21:25:22.163Z,67.17
2024-01-22T21:27:50.525Z,68.01
2024-01-22T21:30:19.826Z,68.96
2024-01-22T21:32:50.060Z,69.24
2024-01-22T21:35:18.517Z,68.95
2024-01-22T21:37:47.889Z,69.62
2024-01-22T21:40:16.376Z,69.82
2024-01-22T21:42:47.792Z,70.70
2024-01-22T21:45:17.585Z,70.24
2024-01-22T21:47:46.422Z,70.42
2024-01-22T21:50:17.141Z,69.58
2024-01-22T21:52:45.466Z,69.96
2024-01-22T21:55:13.853Z,69.86
2024-01-22T21:57:43.012Z,69.89
2024-01-22T22:00:13.060Z,70.56
2024-01-22T22:02:42.015Z,70.66
2024-01-22T22:05:11.045Z,69.91
2024-01-22T22:07:40.881Z,70.33
2024-01-22T22:10:10.098Z,69.37
2024-01-22T22:12:39.290Z,68.82
2024-01-22T22:15:09.782Z,68.88
2024-01-22T22:17:40.037Z,69.92
2024-01-22T22:20:10.728Z,71.26
2024-01-22T22:22:40.928Z,71.22
2024-01-22T22:25:10.252Z,71.28
2024-01-22T22:27:38.663Z,70.40
2024-01-22T22:30:08.656Z,70.09
2024-01-22T22:32:37.024Z,70.35
2024-01-22T22:35:05.766Z,69.96
2024-01-22T22:37:34.000Z,69.81
2024-01-22T22:40:03.657Z,69.76
2024-01-22T22:42:31.946Z,69.84
2024-01-22T22:45:00.310Z,69.17
2024-01-22T22:47:28.681Z,69.29
2024-01-22T22:49:56.958Z,68.89
2024-01-22T22:52:25.339Z,69.50
2024-01-22T22:54:53.732Z,70.11
2024-01-22T22:57:23.570Z,69.44
2024-01-22T22:59:51.833Z,68.89
2024-01-22T23:02:20.061Z,68.24
2024-01-22T23:04:48.379Z,68.74
2024-01-22T23:07:17.244Z,68.52
2024-01-22T23:09:45.448Z,68.78
2024-01-22T23:12:14.169Z,68.08
2024-01-22T23:14:43.966Z,67.88
2024-01-22T23:17:12.165Z,68.43
2024-01-22T23:19:40.483Z,68.09
2024-01-22T23:22:08.770Z,68.49
2024-01-22T23:24:37.176Z,69.84
2024-01-22T23:27:05.904Z,69.09
2024-01-22T23:29:34.129Z,69.90
2024-01-22T23:32:04.077Z,70.08
2024-01-22T23:34:32.359Z,70.21
2024-01-22T23:37:00.725Z,70.17
2024-01-22T23:39:29.198Z,69.84
2024-01-22T23:41:57.732Z,69.70
2024-01-22T23:44:25.984Z,69.89
2024-01-22T23:46:54.740Z,69.79
2024-01-22T23:49:24.652Z,68.85
2024-01-22T23:51:52.806Z,68.72
2024-01-22T23:54:21.339Z,68.74
2024-01-22T23:56:49.619Z,69.70
2024-01-22T23:59:17.944Z,70.32
